Time;durP1;ratioP1;P1;durP2;ratioP2;P2;SDS_P1;SDS_P2;PMS_P1;PMS_P2;Temp;Humidity;BMP_temperature;BMP_pressure;BME280_temperature;BME280_humidity;BME280_pressure;Samples;Min_cycle;Max_cycle;Signal;HPM_P1;HPM_P2
2022/05/26 07:55:19;;;;;;;;;;;21.30;99.90;;;;;;5053785;27;1951116;-49
2022/05/26 07:57:45;;;;;;;;;;;21.30;99.40;;;;;;5111179;28;19934;-48
2022/05/26 08:00:11;;;;;;;;;;;21.30;99.40;;;;;;5093131;28;20370;-51
2022/05/26 08:02:36;;;;;;;;;;;21.30;99.30;;;;;;5110872;28;20371;-48
2022/05/26 08:05:02;;;;;;;;;;;21.30;99.40;;;;;;5106856;28;19951;-49
2022/05/26 08:07:28;;;;;;;;;;;21.30;99.20;;;;;;5093070;28;19937;-48
2022/05/26 08:09:53;;;;;;;;;;;21.30;99.50;;;;;;5111364;28;19908;-45
2022/05/26 08:12:19;;;;;;;;;;;21.30;99.80;;;;;;5111197;28;19912;-51
2022/05/26 08:14:44;;;;;;;;;;;21.30;99.90;;;;;;5110822;28;19916;-48
2022/05/26 08:17:13;;;;;;;;;;;21.30;99.90;;;;;;5111015;28;19916;-49
2022/05/26 08:19:39;;;;;;;;;;;21.30;99.90;;;;;;5092740;28;20416;-50
2022/05/26 08:22:04;;;;;;;;;;;21.30;99.90;;;;;;5110847;28;19951;-48
2022/05/26 08:24:30;;;;;;;;;;;21.30;99.90;;;;;;5109795;28;19912;-76
2022/05/26 08:26:59;;;;;;;;;;;21.30;99.90;;;;;;5079968;28;19909;-74
2022/05/26 08:29:24;;;;;;;;;;;21.30;99.90;;;;;;5090742;28;19915;-65
2022/05/26 08:31:50;;;;;;;;;;;21.30;99.90;;;;;;5110406;28;20007;-51
2022/05/26 08:34:17;;;;;;;;;;;21.40;99.90;;;;;;5103746;28;19923;-46
2022/05/26 08:36:42;;;;;;;;;;;21.40;99.90;;;;;;5090332;28;20264;-45
2022/05/26 08:39:08;;;;;;;;;;;21.50;99.90;;;;;;5090533;28;19908;-45
2022/05/26 08:41:35;;;;;;;;;;;21.50;99.90;;;;;;5099838;28;20513;-48
2022/05/26 08:44:01;;;;;;;;;;;21.50;99.90;;;;;;5110049;28;19912;-48
2022/05/26 08:46:36;;;;;;;;;;;21.40;99.90;;;;;;5087684;28;20397;-48
2022/05/26 08:49:08;;;;;;;;;;;21.50;99.90;;;;;;5110786;28;19912;-46
2022/05/26 08:51:55;;;;;;;;;;;21.40;99.90;;;;;;5093961;28;19912;-49
2022/05/26 08:54:39;;;;;;;;;;;21.50;99.90;;;;;;5088613;28;19930;-46
2022/05/26 08:57:07;;;;;;;;;;;21.50;99.90;;;;;;5090338;28;19915;-49
2022/05/26 08:59:36;;;;;;;;;;;21.50;99.90;;;;;;5099730;28;20393;-49
2022/05/26 09:02:02;;;;;;;;;;;21.50;99.90;;;;;;5110501;28;19912;-49
2022/05/26 09:04:27;;;;;;;;;;;21.50;99.90;;;;;;5107873;28;19915;-46
2022/05/26 09:15:14;;;;;;;;;;;21.50;99.90;;;;;;5076298;28;20412;-46
2022/05/26 09:17:39;;;;;;;;;;;21.50;99.90;;;;;;5076108;28;19916;-45
2022/05/26 09:20:25;;;;;;;;;;;21.50;99.90;;;;;;5076208;28;19909;-47
2022/05/26 09:22:51;;;;;;;;;;;21.50;99.90;;;;;;5075919;28;19908;-46
2022/05/26 09:25:31;;;;;;;;;;;21.50;99.90;;;;;;5092250;28;19918;-47
2022/05/26 09:27:57;;;;;;;;;;;21.50;99.90;;;;;;5095930;28;19944;-52
2022/05/26 09:30:24;;;;;;;;;;;21.50;99.90;;;;;;5092275;28;19947;-45
2022/05/26 09:32:50;;;;;;;;;;;21.50;99.90;;;;;;5095990;28;19908;-45
2022/05/26 09:35:18;;;;;;;;;;;21.50;99.90;;;;;;5093203;28;20271;-44
2022/05/26 09:37:48;;;;;;;;;;;21.50;99.90;;;;;;5089395;28;19912;-44
2022/05/26 09:40:34;;;;;;;;;;;21.50;99.90;;;;;;5095713;28;19912;-45
2022/05/26 09:43:02;;;;;;;;;;;21.50;99.90;;;;;;5095286;28;19908;-46
2022/05/26 09:45:30;;;;;;;;;;;21.50;99.90;;;;;;5095651;28;19960;-48
2022/05/26 09:47:58;;;;;;;;;;;21.50;99.90;;;;;;5096130;28;19908;-47
2022/05/26 09:50:33;;;;;;;;;;;21.50;99.90;;;;;;5095791;28;20008;-44
2022/05/26 09:52:59;;;;;;;;;;;21.50;99.90;;;;;;5095565;28;19912;-44
2022/05/26 09:55:29;;;;;;;;;;;21.50;99.90;;;;;;5095974;28;19920;-46
2022/05/26 09:58:09;;;;;;;;;;;21.50;99.90;;;;;;5095762;28;19909;-49
2022/05/26 10:00:37;;;;;;;;;;;21.50;99.90;;;;;;5095506;28;19914;-45
2022/05/26 10:03:21;;;;;;;;;;;21.50;99.90;;;;;;5095409;28;19958;-50
2022/05/26 10:06:02;;;;;;;;;;;21.50;99.90;;;;;;5077437;28;19947;-46
2022/05/26 10:08:46;;;;;;;;;;;21.50;99.90;;;;;;5095466;28;19969;-49
2022/05/26 10:11:17;;;;;;;;;;;21.50;99.90;;;;;;5095340;28;19958;-45
2022/05/26 10:14:02;;;;;;;;;;;21.50;99.90;;;;;;5095521;28;19916;-50
2022/05/26 10:16:34;;;;;;;;;;;21.50;99.90;;;;;;5094684;28;19908;-46
2022/05/26 10:19:02;;;;;;;;;;;21.50;99.90;;;;;;5095760;28;19915;-47
2022/05/26 10:21:46;;;;;;;;;;;21.50;99.90;;;;;;5095548;28;19908;-50
2022/05/26 10:24:14;;;;;;;;;;;21.50;99.90;;;;;;5095381;28;19934;-48
2022/05/26 10:26:49;;;;;;;;;;;21.50;99.90;;;;;;5077104;28;19936;-49
2022/05/26 10:29:47;;;;;;;;;;;21.50;99.90;;;;;;5095413;28;19908;-44
2022/05/26 10:32:25;;;;;;;;;;;21.50;99.90;;;;;;5050238;28;19908;-49
2022/05/26 10:35:05;;;;;;;;;;;21.50;99.90;;;;;;5095134;28;19916;-50
2022/05/26 10:37:33;;;;;;;;;;;21.50;99.90;;;;;;5095032;28;20261;-47
2022/05/26 10:40:10;;;;;;;;;;;21.50;99.90;;;;;;5095316;28;19953;-47
2022/05/26 10:42:38;;;;;;;;;;;21.50;99.90;;;;;;5095521;28;19908;-48
2022/05/26 10:45:07;;;;;;;;;;;21.50;99.90;;;;;;5076982;28;19908;-47
2022/05/26 10:47:36;;;;;;;;;;;21.50;99.90;;;;;;5094696;28;19931;-45
2022/05/26 10:50:09;;;;;;;;;;;21.50;99.90;;;;;;5094987;28;19912;-49
2022/05/26 10:52:40;;;;;;;;;;;21.50;99.90;;;;;;5076445;28;20351;-46
2022/05/26 10:55:15;;;;;;;;;;;21.50;99.90;;;;;;5094011;28;19920;-47
2022/05/26 10:57:40;;;;;;;;;;;21.50;99.90;;;;;;5094852;28;20315;-48
2022/05/26 11:00:08;;;;;;;;;;;21.50;99.90;;;;;;5094760;28;20006;-47
2022/05/26 11:02:40;;;;;;;;;;;21.60;99.90;;;;;;5094350;28;19919;-47
2022/05/26 11:05:09;;;;;;;;;;;21.50;99.90;;;;;;5094294;28;20274;-45
2022/05/26 11:07:38;;;;;;;;;;;21.50;99.90;;;;;;5094727;28;19951;-47
2022/05/26 11:10:06;;;;;;;;;;;21.50;99.90;;;;;;5094707;28;19915;-50
2022/05/26 11:12:35;;;;;;;;;;;21.50;99.90;;;;;;5094763;28;19918;-49
2022/05/26 11:18:04;;;;;;;;;;;21.50;99.90;;;;;;5094237;28;20385;-49
2022/05/26 11:20:35;;;;;;;;;;;21.50;99.90;;;;;;5094276;28;20262;-45
2022/05/26 11:23:04;;;;;;;;;;;21.50;99.90;;;;;;5094337;28;19908;-47
2022/05/26 11:25:31;;;;;;;;;;;21.50;99.90;;;;;;5093911;28;19969;-47
2022/05/26 11:27:59;;;;;;;;;;;21.50;99.90;;;;;;5094305;28;19908;-46
2022/05/26 11:36:08;;;;;;;;;;;21.50;99.90;;;;;;5093894;28;19919;-44
2022/05/26 11:38:35;;;;;;;;;;;21.50;99.90;;;;;;5094196;28;19908;-45
2022/05/26 11:41:01;;;;;;;;;;;21.50;99.90;;;;;;5093679;28;20003;-50
2022/05/26 11:43:56;;;;;;;;;;;21.50;99.90;;;;;;5094039;28;20424;-48
2022/05/26 11:46:45;;;;;;;;;;;21.50;99.90;;;;;;5093948;28;19920;-45
2022/05/26 11:49:30;;;;;;;;;;;21.50;99.90;;;;;;5082875;28;19915;-46
2022/05/26 11:51:56;;;;;;;;;;;21.50;99.90;;;;;;5093688;28;19916;-50
2022/05/26 11:54:40;;;;;;;;;;;21.50;99.90;;;;;;5093494;28;20302;-44
2022/05/26 11:57:24;;;;;;;;;;;21.50;99.90;;;;;;5093942;28;19908;-47
2022/05/26 11:59:50;;;;;;;;;;;21.50;99.90;;;;;;5093799;28;19994;-46
2022/05/26 12:02:26;;;;;;;;;;;21.50;99.90;;;;;;5093767;28;19908;-45
2022/05/26 12:04:52;;;;;;;;;;;21.50;99.90;;;;;;5093299;28;19912;-46
2022/05/26 12:07:18;;;;;;;;;;;21.50;99.90;;;;;;5093840;28;20283;-47
2022/05/26 12:09:51;;;;;;;;;;;21.50;99.90;;;;;;5093682;28;20000;-45
2022/05/26 12:12:16;;;;;;;;;;;21.50;99.90;;;;;;5093732;28;19958;-46
2022/05/26 12:14:42;;;;;;;;;;;21.50;99.90;;;;;;5093380;28;19955;-47
2022/05/26 12:17:26;;;;;;;;;;;21.50;99.90;;;;;;5094099;28;20351;-45
2022/05/26 12:19:52;;;;;;;;;;;21.50;99.90;;;;;;5093682;28;20010;-49
2022/05/26 12:22:21;;;;;;;;;;;21.50;99.90;;;;;;5093992;28;20362;-51
2022/05/26 12:24:49;;;;;;;;;;;21.50;99.90;;;;;;5075455;28;20330;-47
2022/05/26 12:27:34;;;;;;;;;;;21.50;99.90;;;;;;5093786;28;19978;-46
2022/05/26 12:30:01;;;;;;;;;;;21.60;99.90;;;;;;5093092;28;20351;-45
2022/05/26 12:32:29;;;;;;;;;;;21.60;99.90;;;;;;5093619;28;19908;-46
2022/05/26 12:35:16;;;;;;;;;;;21.50;99.90;;;;;;5093528;28;20002;-48
2022/05/26 12:38:02;;;;;;;;;;;21.50;99.90;;;;;;5093486;28;19916;-49
2022/05/26 12:40:36;;;;;;;;;;;21.60;99.90;;;;;;5094593;28;19915;-47
2022/05/26 12:43:21;;;;;;;;;;;21.50;99.90;;;;;;5097094;28;20419;-45
2022/05/26 12:45:54;;;;;;;;;;;21.50;99.90;;;;;;5096986;28;20251;-47
2022/05/26 12:48:38;;;;;;;;;;;21.60;99.90;;;;;;5096464;28;20256;-47
2022/05/26 12:51:07;;;;;;;;;;;21.50;99.90;;;;;;5096398;28;20323;-46
2022/05/26 12:53:33;;;;;;;;;;;21.50;99.90;;;;;;5096539;28;20363;-47
2022/05/26 12:56:20;;;;;;;;;;;21.50;99.90;;;;;;5097174;28;20061;-48
2022/05/26 12:58:50;;;;;;;;;;;21.50;99.90;;;;;;5096894;28;20263;-52
2022/05/26 13:01:19;;;;;;;;;;;21.50;99.50;;;;;;5096924;28;19908;-45
2022/05/26 13:03:47;;;;;;;;;;;21.50;99.40;;;;;;5097015;28;19915;-45
2022/05/26 13:06:13;;;;;;;;;;;21.50;99.50;;;;;;5096801;28;19958;-46
2022/05/26 13:08:47;;;;;;;;;;;21.50;99.30;;;;;;5096797;28;20000;-50
2022/05/26 13:11:14;;;;;;;;;;;21.50;99.40;;;;;;5096810;28;19908;-47
2022/05/26 13:13:42;;;;;;;;;;;21.50;99.50;;;;;;5096946;28;19920;-48
2022/05/26 13:16:21;;;;;;;;;;;21.50;99.40;;;;;;5096341;28;20002;-48
2022/05/26 13:18:47;;;;;;;;;;;21.40;99.40;;;;;;5096437;28;19915;-49
2022/05/26 13:21:21;;;;;;;;;;;21.50;99.60;;;;;;5096515;28;19908;-45
2022/05/26 13:23:48;;;;;;;;;;;21.50;99.40;;;;;;5096545;28;20011;-46
2022/05/26 13:26:14;;;;;;;;;;;21.50;99.40;;;;;;5096231;28;20366;-52
2022/05/26 13:28:41;;;;;;;;;;;21.40;99.40;;;;;;5096507;28;19915;-47
2022/05/26 13:33:54;;;;;;;;;;;21.50;99.10;;;;;;5096227;28;19965;-46
2022/05/26 13:36:31;;;;;;;;;;;21.50;99.30;;;;;;5096657;28;19916;-46
2022/05/26 13:39:03;;;;;;;;;;;21.50;99.00;;;;;;5096219;28;19909;-47
2022/05/26 13:41:28;;;;;;;;;;;21.50;99.00;;;;;;5096017;28;19908;-48
2022/05/26 13:43:55;;;;;;;;;;;21.50;98.90;;;;;;5096133;28;19909;-45
2022/05/26 13:46:25;;;;;;;;;;;21.50;98.90;;;;;;5095941;28;20320;-47
2022/05/26 13:48:55;;;;;;;;;;;21.50;99.00;;;;;;5096206;28;19909;-47
2022/05/26 13:51:41;;;;;;;;;;;21.50;99.10;;;;;;5095935;28;19908;-47
2022/05/26 13:54:12;;;;;;;;;;;21.50;99.10;;;;;;5095885;28;19973;-47
2022/05/26 13:56:38;;;;;;;;;;;21.50;99.30;;;;;;5096016;28;19908;-50
2022/05/26 13:59:05;;;;;;;;;;;21.50;99.60;;;;;;5096131;28;19954;-48
2022/05/26 14:01:31;;;;;;;;;;;21.50;99.40;;;;;;5095984;28;19908;-50
2022/05/26 14:03:58;;;;;;;;;;;21.50;99.50;;;;;;5095826;28;19908;-45
2022/05/26 14:06:24;;;;;;;;;;;21.50;99.50;;;;;;5077717;28;19962;-47
2022/05/26 14:08:51;;;;;;;;;;;21.50;99.60;;;;;;5077389;28;19909;-50
2022/05/26 14:11:35;;;;;;;;;;;21.50;99.70;;;;;;5095993;28;19962;-50
2022/05/26 14:14:19;;;;;;;;;;;21.50;99.80;;;;;;5095548;28;19920;-48
2022/05/26 14:16:46;;;;;;;;;;;21.50;99.80;;;;;;5095239;28;20037;-43
2022/05/26 14:19:16;;;;;;;;;;;21.50;99.90;;;;;;5095129;28;19977;-46
2022/05/26 14:21:47;;;;;;;;;;;21.60;99.80;;;;;;5077188;28;19919;-48
2022/05/26 14:24:24;;;;;;;;;;;21.50;99.70;;;;;;5095365;28;19908;-45
2022/05/26 14:27:02;;;;;;;;;;;21.60;99.70;;;;;;5095217;28;20004;-41
2022/05/26 14:29:27;;;;;;;;;;;21.60;99.70;;;;;;5094839;28;19912;-46
2022/05/26 14:31:56;;;;;;;;;;;21.50;99.60;;;;;;5094832;28;20271;-42
2022/05/26 14:34:24;;;;;;;;;;;21.60;99.70;;;;;;5095023;28;19912;-44
2022/05/26 14:36:51;;;;;;;;;;;21.50;99.70;;;;;;5094978;28;19912;-47
2022/05/26 14:39:17;;;;;;;;;;;21.50;99.60;;;;;;5094818;28;19947;-49
2022/05/26 14:41:42;;;;;;;;;;;21.50;99.50;;;;;;5094853;28;19951;-44
2022/05/26 14:44:10;;;;;;;;;;;21.50;99.50;;;;;;5094596;28;19943;-45
2022/05/26 14:46:35;;;;;;;;;;;21.50;99.50;;;;;;5094668;28;19908;-42
2022/05/26 14:49:01;;;;;;;;;;;21.50;99.50;;;;;;5094755;28;19912;-40
2022/05/26 14:51:31;;;;;;;;;;;21.50;99.60;;;;;;5094620;28;20322;-45
2022/05/26 14:56:44;;;;;;;;;;;21.50;99.60;;;;;;5094418;28;20381;-43
2022/05/26 14:59:10;;;;;;;;;;;21.50;99.60;;;;;;5094964;28;19908;-42
2022/05/26 15:01:36;;;;;;;;;;;21.50;99.40;;;;;;5094559;28;19912;-46
2022/05/26 15:04:01;;;;;;;;;;;21.50;99.50;;;;;;5093690;28;19923;-41
2022/05/26 15:06:32;;;;;;;;;;;21.50;99.50;;;;;;5094003;28;19912;-41
2022/05/26 15:08:57;;;;;;;;;;;21.50;99.40;;;;;;5093915;28;19944;-42
2022/05/26 15:11:23;;;;;;;;;;;21.50;99.50;;;;;;5094390;28;19954;-41
2022/05/26 15:13:48;;;;;;;;;;;21.50;99.40;;;;;;5094058;28;20323;-41
2022/05/26 15:16:16;;;;;;;;;;;21.50;99.40;;;;;;5094259;28;19919;-44
2022/05/26 15:18:41;;;;;;;;;;;21.50;99.30;;;;;;5094226;28;19912;-42
2022/05/26 15:21:07;;;;;;;;;;;21.50;99.30;;;;;;5094204;28;20392;-41
2022/05/26 15:23:34;;;;;;;;;;;21.50;99.30;;;;;;5094151;28;19931;-41
2022/05/26 15:26:08;;;;;;;;;;;21.50;99.20;;;;;;5094093;28;19912;-41
2022/05/26 15:28:35;;;;;;;;;;;21.50;99.30;;;;;;5094055;28;20017;-42
2022/05/26 15:31:00;;;;;;;;;;;21.50;99.30;;;;;;5094093;28;20239;-41
2022/05/26 15:33:26;;;;;;;;;;;21.50;99.30;;;;;;5093939;28;19962;-41
2022/05/26 15:35:52;;;;;;;;;;;21.50;99.20;;;;;;5093547;28;19916;-41
2022/05/26 15:38:18;;;;;;;;;;;21.50;99.20;;;;;;5093784;28;20340;-40
2022/05/26 15:40:44;;;;;;;;;;;21.50;99.30;;;;;;5093777;28;20007;-43
2022/05/26 15:43:09;;;;;;;;;;;21.50;99.40;;;;;;5093824;28;19909;-41
2022/05/26 15:45:36;;;;;;;;;;;21.50;99.60;;;;;;5093760;28;20362;-40
2022/05/26 15:48:06;;;;;;;;;;;21.50;99.60;;;;;;5093830;28;19909;-41
2022/05/26 15:50:32;;;;;;;;;;;21.50;99.70;;;;;;5093218;28;20282;-41
2022/05/26 15:53:00;;;;;;;;;;;21.50;99.70;;;;;;5093756;28;19915;-40
2022/05/26 15:55:26;;;;;;;;;;;21.50;99.80;;;;;;5093742;28;19927;-40
2022/05/26 15:57:51;;;;;;;;;;;21.60;99.90;;;;;;5093584;28;20278;-42
2022/05/26 16:00:18;;;;;;;;;;;21.60;99.90;;;;;;5093326;28;19908;-45
2022/05/26 16:02:44;;;;;;;;;;;21.60;99.90;;;;;;5093444;28;20301;-45
2022/05/26 16:05:10;;;;;;;;;;;21.60;99.90;;;;;;5093143;28;19908;-42
2022/05/26 16:07:36;;;;;;;;;;;21.60;99.90;;;;;;5093501;28;19954;-46
2022/05/26 16:10:02;;;;;;;;;;;21.60;99.90;;;;;;5093157;28;20282;-44
2022/05/26 16:12:28;;;;;;;;;;;21.60;99.90;;;;;;5093262;28;19908;-42
2022/05/26 16:14:53;;;;;;;;;;;21.60;99.90;;;;;;5093784;28;20030;-42
2022/05/26 16:17:20;;;;;;;;;;;21.60;99.90;;;;;;5097409;28;20418;-43
2022/05/26 16:19:46;;;;;;;;;;;21.60;99.90;;;;;;5097447;28;19912;-40
2022/05/26 16:22:15;;;;;;;;;;;21.60;99.90;;;;;;5097137;28;20273;-43
2022/05/26 16:24:41;;;;;;;;;;;21.60;99.90;;;;;;5097364;28;19955;-44
2022/05/26 16:27:06;;;;;;;;;;;21.60;99.90;;;;;;5097133;28;20327;-49
2022/05/26 16:29:32;;;;;;;;;;;21.60;99.90;;;;;;5097145;28;19908;-51
2022/05/26 16:31:57;;;;;;;;;;;21.60;99.90;;;;;;5097134;28;19912;-48
2022/05/26 16:34:23;;;;;;;;;;;21.60;99.90;;;;;;5096716;28;19916;-53
2022/05/26 16:36:54;;;;;;;;;;;21.60;99.90;;;;;;5096770;28;20394;-46
2022/05/26 16:39:20;;;;;;;;;;;21.60;99.90;;;;;;5096838;28;19915;-47
2022/05/26 16:41:46;;;;;;;;;;;21.60;99.90;;;;;;5096540;28;20316;-48
2022/05/26 16:44:12;;;;;;;;;;;21.60;99.90;;;;;;5097034;28;20358;-49
2022/05/26 16:46:38;;;;;;;;;;;21.60;99.90;;;;;;5096464;28;19908;-47
2022/05/26 16:49:03;;;;;;;;;;;21.60;99.90;;;;;;5096792;28;20309;-47
2022/05/26 16:51:32;;;;;;;;;;;21.60;99.90;;;;;;5095228;28;19915;-46
2022/05/26 16:53:57;;;;;;;;;;;21.60;99.90;;;;;;5095668;28;19973;-43
2022/05/26 16:56:23;;;;;;;;;;;21.60;99.90;;;;;;5096673;28;20359;-46
2022/05/26 16:58:48;;;;;;;;;;;21.60;99.90;;;;;;5097023;28;19908;-45
2022/05/26 17:01:14;;;;;;;;;;;21.60;99.90;;;;;;5078743;28;19934;-47
2022/05/26 17:03:39;;;;;;;;;;;21.60;99.90;;;;;;5096839;28;19915;-45
2022/05/26 17:06:06;;;;;;;;;;;21.60;99.90;;;;;;5096899;28;19908;-46
2022/05/26 17:08:32;;;;;;;;;;;21.60;99.90;;;;;;5097164;28;19919;-46
2022/05/26 17:10:57;;;;;;;;;;;21.60;99.90;;;;;;5096854;28;19908;-49
2022/05/26 17:22:05;;;;;;;;;;;21.60;99.90;;;;;;5096526;28;19957;-46
2022/05/26 17:24:31;;;;;;;;;;;21.60;99.90;;;;;;5078500;28;19912;-49
2022/05/26 17:26:57;;;;;;;;;;;21.60;99.90;;;;;;5095635;28;19915;-45
2022/05/26 17:29:23;;;;;;;;;;;21.60;99.90;;;;;;5096259;28;19908;-42
2022/05/26 17:31:49;;;;;;;;;;;21.60;99.90;;;;;;5077824;28;19916;-43
2022/05/26 17:34:14;;;;;;;;;;;21.60;99.90;;;;;;5096268;28;19912;-46
2022/05/26 17:36:40;;;;;;;;;;;21.60;99.90;;;;;;5096408;28;19912;-47
2022/05/26 17:39:11;;;;;;;;;;;21.60;99.90;;;;;;5096364;28;20017;-44
2022/05/26 17:41:36;;;;;;;;;;;21.60;99.90;;;;;;5078122;28;20007;-46
2022/05/26 17:44:10;;;;;;;;;;;21.60;99.90;;;;;;5096434;28;19998;-46
2022/05/26 17:46:37;;;;;;;;;;;21.60;99.90;;;;;;5096029;28;19980;-49
2022/05/26 17:49:03;;;;;;;;;;;21.60;99.90;;;;;;5096140;28;19909;-44
2022/05/26 17:51:29;;;;;;;;;;;21.60;99.90;;;;;;5095824;28;19908;-47
2022/05/26 17:53:55;;;;;;;;;;;21.60;99.90;;;;;;5095501;28;19920;-47
2022/05/26 17:56:22;;;;;;;;;;;21.60;99.90;;;;;;5095710;28;19969;-44
2022/05/26 17:58:47;;;;;;;;;;;21.60;99.90;;;;;;5095465;28;19995;-46
2022/05/26 18:01:13;;;;;;;;;;;21.60;99.90;;;;;;5077409;28;19939;-48
2022/05/26 18:03:41;;;;;;;;;;;21.60;99.90;;;;;;5095155;28;19908;-46
2022/05/26 18:06:07;;;;;;;;;;;21.60;99.90;;;;;;5095195;28;20006;-45
2022/05/26 18:08:33;;;;;;;;;;;21.60;99.90;;;;;;5095115;28;19951;-44
2022/05/26 18:10:59;;;;;;;;;;;21.60;99.90;;;;;;5095654;28;19908;-46
2022/05/26 18:13:26;;;;;;;;;;;21.60;99.90;;;;;;5077286;28;20365;-47
2022/05/26 18:15:52;;;;;;;;;;;21.60;99.90;;;;;;5095629;28;20068;-45
2022/05/26 18:18:19;;;;;;;;;;;21.60;99.90;;;;;;5095741;28;19947;-45
2022/05/26 18:20:45;;;;;;;;;;;21.60;99.90;;;;;;5077120;28;19908;-48
2022/05/26 18:23:19;;;;;;;;;;;21.60;99.90;;;;;;5095296;28;19927;-47
2022/05/26 18:25:46;;;;;;;;;;;21.60;99.90;;;;;;5095041;28;19915;-47
2022/05/26 18:28:11;;;;;;;;;;;21.60;99.90;;;;;;5094708;28;19908;-47
2022/05/26 18:30:37;;;;;;;;;;;21.60;99.90;;;;;;5095363;28;19999;-46
2022/05/26 18:33:05;;;;;;;;;;;21.60;99.90;;;;;;5095486;28;19972;-43
2022/05/26 18:35:31;;;;;;;;;;;21.60;99.90;;;;;;5094959;28;19916;-44
2022/05/26 18:37:56;;;;;;;;;;;21.60;99.90;;;;;;5094282;28;19908;-46
2022/05/26 18:40:23;;;;;;;;;;;21.60;99.90;;;;;;5095160;28;19912;-50
2022/05/26 18:42:49;;;;;;;;;;;21.60;99.90;;;;;;5095171;28;19952;-46
2022/05/26 18:45:15;;;;;;;;;;;21.60;99.90;;;;;;5095316;28;19958;-49
2022/05/26 18:47:42;;;;;;;;;;;21.60;99.90;;;;;;5094732;28;20362;-45
2022/05/26 18:50:10;;;;;;;;;;;21.60;99.90;;;;;;5094709;28;19915;-47
2022/05/26 18:52:36;;;;;;;;;;;21.60;99.90;;;;;;5094915;28;20382;-45
2022/05/26 18:55:02;;;;;;;;;;;21.60;99.90;;;;;;5076736;28;19942;-45
2022/05/26 18:57:27;;;;;;;;;;;21.60;99.90;;;;;;5094767;28;19908;-49
2022/05/26 18:59:53;;;;;;;;;;;21.60;99.90;;;;;;5094162;28;19909;-48
2022/05/26 19:02:20;;;;;;;;;;;21.60;99.90;;;;;;5094575;28;19909;-44
2022/05/26 19:04:46;;;;;;;;;;;21.60;99.90;;;;;;5075936;28;19915;-48
2022/05/26 19:07:12;;;;;;;;;;;21.60;99.90;;;;;;5091665;28;19916;-45
2022/05/26 19:09:37;;;;;;;;;;;21.60;99.90;;;;;;5094073;28;20278;-45
2022/05/26 19:12:03;;;;;;;;;;;21.60;99.90;;;;;;5094673;28;20262;-47
2022/05/26 19:14:33;;;;;;;;;;;21.50;99.90;;;;;;5094196;28;19912;-49
2022/05/26 19:17:19;;;;;;;;;;;21.60;99.90;;;;;;5093926;28;19978;-48
2022/05/26 19:19:45;;;;;;;;;;;21.50;99.90;;;;;;5094144;28;19908;-48
2022/05/26 19:22:11;;;;;;;;;;;21.50;99.90;;;;;;5076146;28;19916;-48
2022/05/26 19:24:38;;;;;;;;;;;21.50;99.90;;;;;;5094032;28;19953;-46
2022/05/26 19:27:05;;;;;;;;;;;21.60;99.90;;;;;;5093710;28;20337;-48
2022/05/26 19:29:36;;;;;;;;;;;21.60;99.90;;;;;;5094138;28;19908;-46
2022/05/26 19:32:02;;;;;;;;;;;21.60;99.90;;;;;;5094161;28;19986;-48
2022/05/26 19:34:28;;;;;;;;;;;21.60;99.90;;;;;;5093334;28;19955;-46
2022/05/26 19:36:53;;;;;;;;;;;21.60;99.90;;;;;;5093932;28;19998;-49
2022/05/26 19:39:19;;;;;;;;;;;21.60;99.90;;;;;;5075836;28;19908;-47
2022/05/26 19:41:49;;;;;;;;;;;21.50;99.90;;;;;;5093789;28;20326;-45
2022/05/26 19:44:15;;;;;;;;;;;21.60;99.90;;;;;;5093570;28;19915;-49
2022/05/26 19:46:41;;;;;;;;;;;21.60;99.90;;;;;;5093164;28;19912;-49
2022/05/26 19:49:06;;;;;;;;;;;21.60;99.90;;;;;;5093475;28;19908;-47
2022/05/26 19:51:32;;;;;;;;;;;21.60;99.90;;;;;;5093513;28;19919;-46
2022/05/26 19:53:59;;;;;;;;;;;21.60;99.90;;;;;;5093339;28;19924;-51
2022/05/26 19:56:25;;;;;;;;;;;21.60;99.90;;;;;;5094045;28;20342;-44
2022/05/26 19:58:53;;;;;;;;;;;21.60;99.90;;;;;;5093817;28;19961;-49
2022/05/26 20:01:19;;;;;;;;;;;21.60;99.90;;;;;;5093493;28;19908;-48
2022/05/26 20:03:45;;;;;;;;;;;21.60;99.90;;;;;;5093444;28;19908;-47
2022/05/26 20:06:11;;;;;;;;;;;21.60;99.90;;;;;;5093631;28;20006;-48
2022/05/26 20:08:37;;;;;;;;;;;21.60;99.90;;;;;;5093416;28;20367;-44
2022/05/26 20:11:02;;;;;;;;;;;21.60;99.90;;;;;;5093375;28;19909;-44
2022/05/26 20:13:28;;;;;;;;;;;21.60;99.90;;;;;;5093221;28;19916;-47
2022/05/26 20:15:53;;;;;;;;;;;21.60;99.90;;;;;;5093409;28;20376;-48
2022/05/26 20:18:21;;;;;;;;;;;21.60;99.90;;;;;;5093363;28;19998;-48
2022/05/26 20:20:47;;;;;;;;;;;21.60;99.90;;;;;;5093256;28;19919;-46
2022/05/26 20:23:14;;;;;;;;;;;21.60;99.90;;;;;;5093561;28;19908;-49
2022/05/26 20:25:41;;;;;;;;;;;21.60;99.90;;;;;;5093390;28;19956;-46
2022/05/26 20:30:51;;;;;;;;;;;21.60;99.90;;;;;;5093643;28;19916;-45
2022/05/26 20:33:16;;;;;;;;;;;21.60;99.90;;;;;;5091634;28;20355;-44
2022/05/26 20:35:42;;;;;;;;;;;21.60;99.90;;;;;;5093607;28;19923;-47
2022/05/26 20:38:12;;;;;;;;;;;21.60;99.90;;;;;;5093844;28;19908;-48
2022/05/26 20:40:37;;;;;;;;;;;21.60;99.90;;;;;;5093753;28;19908;-44
2022/05/26 20:43:03;;;;;;;;;;;21.60;99.90;;;;;;5093724;28;19908;-43
2022/05/26 20:45:29;;;;;;;;;;;21.60;99.90;;;;;;5093555;28;20270;-42
2022/05/26 20:47:54;;;;;;;;;;;21.60;99.90;;;;;;5093392;28;19908;-44
2022/05/26 20:50:20;;;;;;;;;;;21.60;99.90;;;;;;5093367;28;19916;-45
2022/05/26 20:52:47;;;;;;;;;;;21.60;99.90;;;;;;5093471;28;19946;-43
2022/05/26 20:55:13;;;;;;;;;;;21.50;99.90;;;;;;5093669;28;19927;-44
2022/05/26 20:57:40;;;;;;;;;;;21.50;99.90;;;;;;5093318;28;20294;-46
2022/05/26 21:00:06;;;;;;;;;;;21.50;99.90;;;;;;5093597;28;19909;-44
2022/05/26 21:02:32;;;;;;;;;;;21.40;99.90;;;;;;5096100;28;19939;-45
2022/05/26 21:04:57;;;;;;;;;;;21.40;99.90;;;;;;5097193;28;19912;-46
2022/05/26 21:07:25;;;;;;;;;;;21.40;99.90;;;;;;5097068;28;19916;-42
2022/05/26 21:09:51;;;;;;;;;;;21.40;99.90;;;;;;5096974;28;19908;-42
2022/05/26 21:12:16;;;;;;;;;;;21.40;99.90;;;;;;5078910;28;19915;-45
2022/05/26 21:14:42;;;;;;;;;;;21.40;99.90;;;;;;5096522;28;20006;-43
2022/05/26 21:17:08;;;;;;;;;;;21.40;99.90;;;;;;5096861;28;20003;-44
2022/05/26 21:19:35;;;;;;;;;;;21.40;99.90;;;;;;5096605;28;19914;-45
2022/05/26 21:22:00;;;;;;;;;;;21.30;99.90;;;;;;5096872;28;19908;-43
2022/05/26 21:24:26;;;;;;;;;;;21.30;99.90;;;;;;5096704;28;19908;-43
2022/05/26 21:26:51;;;;;;;;;;;21.30;99.90;;;;;;5096603;28;20282;-45
2022/05/26 21:29:22;;;;;;;;;;;21.30;99.90;;;;;;5096452;28;19919;-43
2022/05/26 21:31:48;;;;;;;;;;;21.30;99.90;;;;;;5096571;28;19908;-44
2022/05/26 21:34:13;;;;;;;;;;;21.30;99.90;;;;;;5095992;28;19923;-45
2022/05/26 21:36:39;;;;;;;;;;;21.30;99.90;;;;;;5096151;28;19915;-47
2022/05/26 21:39:04;;;;;;;;;;;21.20;99.90;;;;;;5096592;28;19916;-44
2022/05/26 21:41:30;;;;;;;;;;;21.30;99.90;;;;;;5096396;28;20002;-45
2022/05/26 21:43:55;;;;;;;;;;;21.30;99.90;;;;;;5096137;28;19958;-44
2022/05/26 21:46:21;;;;;;;;;;;21.30;99.90;;;;;;5096140;28;19915;-43
2022/05/26 21:48:46;;;;;;;;;;;21.20;99.90;;;;;;5096176;28;19988;-43
2022/05/26 21:51:14;;;;;;;;;;;21.30;99.90;;;;;;5095916;28;19919;-47
2022/05/26 21:53:40;;;;;;;;;;;21.30;99.90;;;;;;5095665;28;20300;-43
2022/05/26 21:56:06;;;;;;;;;;;21.30;99.90;;;;;;5095708;28;19908;-46
2022/05/26 21:58:32;;;;;;;;;;;21.30;99.90;;;;;;5095981;28;19915;-44
2022/05/26 22:00:57;;;;;;;;;;;21.30;99.90;;;;;;5077711;28;20343;-46
2022/05/26 22:03:23;;;;;;;;;;;21.30;99.90;;;;;;5096048;28;19908;-46
2022/05/26 22:11:17;;;;;;;;;;;21.20;99.90;;;;;;5095927;28;20234;-45
2022/05/26 22:13:43;;;;;;;;;;;21.20;99.90;;;;;;5095657;28;20098;-43
2022/05/26 22:16:08;;;;;;;;;;;21.30;99.90;;;;;;5095775;28;19939;-44
2022/05/26 22:18:34;;;;;;;;;;;21.30;99.90;;;;;;5095644;28;19950;-45
2022/05/26 22:21:00;;;;;;;;;;;21.30;99.90;;;;;;5095743;28;20350;-45
2022/05/26 22:23:26;;;;;;;;;;;21.30;99.90;;;;;;5095674;28;19908;-46
2022/05/26 22:25:51;;;;;;;;;;;21.30;99.90;;;;;;5077191;28;20362;-45
2022/05/26 22:28:18;;;;;;;;;;;21.30;99.90;;;;;;5095464;28;19908;-44
2022/05/26 22:30:45;;;;;;;;;;;21.30;99.90;;;;;;5077308;28;19914;-43
2022/05/26 22:33:10;;;;;;;;;;;21.30;99.90;;;;;;5095135;28;19908;-42
2022/05/26 22:35:36;;;;;;;;;;;21.30;99.90;;;;;;5095387;28;19916;-43
2022/05/26 22:38:11;;;;;;;;;;;21.20;99.90;;;;;;5095489;28;19912;-44
2022/05/26 22:40:42;;;;;;;;;;;21.30;99.90;;;;;;5095100;28;19915;-44
2022/05/26 22:43:09;;;;;;;;;;;21.30;99.90;;;;;;5095372;28;20240;-43
2022/05/26 22:45:37;;;;;;;;;;;21.20;99.90;;;;;;5095153;28;20366;-45
2022/05/26 22:48:04;;;;;;;;;;;21.30;99.90;;;;;;5094888;28;19916;-45
2022/05/26 22:50:30;;;;;;;;;;;21.30;99.90;;;;;;5095369;28;19915;-44
2022/05/26 22:52:55;;;;;;;;;;;21.20;99.90;;;;;;5095106;28;19912;-47
2022/05/26 22:55:21;;;;;;;;;;;21.30;99.90;;;;;;5095170;28;20369;-46
2022/05/26 22:57:48;;;;;;;;;;;21.30;99.90;;;;;;5094718;28;19908;-46